Doss, TX (78618)

8:12 PM CDT on August 28, 2014 (GMT -0500)
Rancho Milagro | Change Station
CLOSE
Current Station
Personal Weather Station
Location: Harper, TX
Elevation: 2195 ft
Nearby Weather Stations

Elev 2195 ft 30.33 °N, 99.24 °W | Updated 15 minutes ago

Clear
Clear
85.3 °F
Feels Like 88 °F
N
8.3
Wind Variable Wind from SE

Today
High -- | Low -- °F
--% Chance of Precip.
Yesterday
High -- | Low -- °F
Precip. -- in
7:11 AM 8:04 PM
Waxing Crescent, 11% visible
Pressure 29.88 in
Visibility 10.0 miles
Clouds Clear
Heat Index 88 °F
Dew Point 66 °F
Humidity 53%
Rainfall 0.00 in
Snow Depth Not available.
UV 0 out of 12
Pollen 8.90 out of 12
Air Quality Not available.
Flu Activity Not available.
METAR KT82 290055Z AUTO 14008G18KT 10SM CLR 29/20 A2988 RMK AO2 T02930196

More Conditions Fewer Conditions

Pressure 29.88 in
Visibility 10.0 miles
Clouds Clear
Heat Index 88 °F
Dew Point 66 °F
Humidity 53%
Rainfall 0.00 in
Snow Depth Not available.
UV 0 out of 12
Pollen 8.90 out of 12
Air Quality Not available.
Flu Activity Not available.
METAR KT82 290055Z AUTO 14008G18KT 10SM CLR 29/20 A2988 RMK AO2 T02930196

More Conditions Fewer Conditions

Nowcast | as of 6:59 PM CDT on August 28, 2014

Through 9 PM...isolated moderate to heavy showers will develop in between the Interstate 10 and Highway 57 corridors. Movement of these showers will be to the west at around 7 mph. Residents can expect between a tenth and a half of an inch of rainfall as these Showers Pass overhead. If the showers intensify into thunderstorms ...They could produce lightning. Be sure to move indoors if you hear thunder or see lightning. Remember...when thunder roars...go indoors!

×

10-Day Weather Forecast

Almanac

Astronomy

Aug. 28, 2014 Rise Set
Actual Time 7:11 AM CDT 8:04 PM CDT
Civil Twilight 6:46 AM CDT 8:28 PM CDT
Nautical Twilight 6:17 AM CDT 8:57 PM CDT
Astronomical Twilight 5:47 AM CDT 9:27 PM CDT
Moon 9:50 AM CDT (8/28) 9:45 PM CDT (8/28)
Length of Visible Light 13h 42m
Length of Day
12h 53m
Tomorrow will be 1m 45s shorter.
Waxing Crescent, 11% of the Moon is Illuminated
Today
Waxing Crescent
Sep 2
First Quarter
Sep 8
Full
Sep 15
Last Quarter
Sep 24
New

Today's Extremes

State Highs State Lows

Community

WunderPhotos

Upload Photos

1,748,126 photos uploaded!

Nearby

Snow Depth

Station Depth Elevation
No new snow has been reported.

Earthquake Activity

City Distance Mag. Time & Date
No recent earthquake activity has been reported nearby.
Minimum magnitude displayed is 2.5.

Coastal Water Temperatures

Place Temperature
No Stations Reporting

Nearby Weather Stations